CheckWX is a tool to help pilots better visualize weather data.  It is not intended as a substitute for an official pre-flight weather briefing.

19:56:53 UTC

LFMK TAF
Carcassonne Airport
Carcassonne/Salvaza, France
TAF LFMK 251400Z 2515/2615 08020KT CAVOK TEMPO 2515/2518 09021G32KT TEMPO 2607/2615 09021G33KT

Jun-25@
15:00 UTC

Jun-25 @ 15:00 UTC

Jun-26@
15:00 UTC

Jun-26 @ 15:00 UTC

TAF LFMK 251400Z 2515/2615 08020KT CAVOK
Wind
  • 080° at 20 KTS
Conditions
No significant weather
Cloud Levels
  • No significant clouds

Jun-25@
15:00 UTC

Jun-25 @ 15:00 UTC

Jun-25@
18:00 UTC

Jun-25 @ 18:00 UTC

TEMPO 2515/2518 09021G32KT

Expired

Wind
  • 090° at 21 KTS
  • {Gusting to 32 KTS

Jun-26@
07:00 UTC

Jun-26 @ 07:00 UTC

Jun-26@
15:00 UTC

Jun-26 @ 15:00 UTC

TEMPO 2607/2615 09021G33KT

Temporary

Temporary Changes expected for less than half the time period

Wind
  • 090° at 21 KTS
  • {Gusting to 33 KTS